createdAt,value
2023-05-25T00:01:26.392Z,2.70
2023-05-25T00:04:16.917Z,2.58
2023-05-25T00:07:06.263Z,2.78
2023-05-25T00:09:56.394Z,2.40
2023-05-25T00:12:45.071Z,2.38
2023-05-25T00:15:33.711Z,2.28
2023-05-25T00:18:22.410Z,1.80
2023-05-25T00:21:11.896Z,2.92
2023-05-25T00:24:00.515Z,2.85
2023-05-25T00:26:50.524Z,2.72
2023-05-25T00:29:39.278Z,2.90
2023-05-25T00:32:28.072Z,2.63
2023-05-25T00:35:16.992Z,1.92
2023-05-25T00:38:05.747Z,2.30
2023-05-25T00:40:57.281Z,2.40
2023-05-25T00:43:48.317Z,3.20
2023-05-25T00:46:37.594Z,2.03
2023-05-25T00:49:26.815Z,1.88
2023-05-25T00:52:17.066Z,2.28
2023-05-25T00:55:08.314Z,2.13
2023-05-25T00:57:59.559Z,2.50
2023-05-25T01:00:53.418Z,1.95
2023-05-25T01:03:46.779Z,2.08
2023-05-25T01:06:37.749Z,2.35
2023-05-25T01:09:28.761Z,2.08
2023-05-25T01:12:18.879Z,1.88
2023-05-25T01:15:08.841Z,1.90
2023-05-25T01:17:59.419Z,2.17
2023-05-25T01:21:13.299Z,2.63
2023-05-25T01:24:12.088Z,2.08
2023-05-25T01:27:09.390Z,2.08
2023-05-25T01:30:00.947Z,2.03
2023-05-25T01:32:51.263Z,1.80
2023-05-25T01:35:40.844Z,1.88
2023-05-25T01:38:30.991Z,1.73
2023-05-25T01:41:19.674Z,1.90
2023-05-25T01:44:08.864Z,1.92
2023-05-25T01:47:05.093Z,2.33
2023-05-25T01:50:04.579Z,2.30
2023-05-25T01:52:58.709Z,2.67
2023-05-25T01:55:57.686Z,1.85
2023-05-25T01:58:50.813Z,2.00
2023-05-25T02:01:41.258Z,1.60
2023-05-25T02:04:31.444Z,1.83
2023-05-25T02:07:20.212Z,1.77
2023-05-25T02:10:10.076Z,1.80
2023-05-25T02:13:00.155Z,1.67
2023-05-25T02:15:48.753Z,1.95
2023-05-25T02:18:37.495Z,1.75
2023-05-25T02:21:26.206Z,1.70
2023-05-25T02:24:14.933Z,2.03
2023-05-25T02:27:03.553Z,2.10
2023-05-25T02:29:53.915Z,1.98
2023-05-25T02:32:42.719Z,1.80
2023-05-25T02:35:31.423Z,2.30
2023-05-25T02:38:20.114Z,2.55
2023-05-25T02:41:08.881Z,2.20
2023-05-25T02:43:58.138Z,2.38
2023-05-25T02:46:48.351Z,2.60
2023-05-25T02:49:36.988Z,2.78
2023-05-25T02:52:26.105Z,2.33
2023-05-25T02:55:18.852Z,2.13
2023-05-25T02:58:07.943Z,2.17
2023-05-25T03:00:56.976Z,2.40
2023-05-25T03:03:47.386Z,2.22
2023-05-25T03:06:36.557Z,2.50
2023-05-25T03:09:25.307Z,2.13
2023-05-25T03:12:14.049Z,2.25
2023-05-25T03:15:02.732Z,2.50
2023-05-25T03:17:51.761Z,2.22
2023-05-25T03:20:42.240Z,2.38
2023-05-25T03:23:31.097Z,2.28
2023-05-25T03:26:19.777Z,2.65
2023-05-25T03:29:08.582Z,2.42
2023-05-25T03:31:57.353Z,2.17
2023-05-25T03:34:46.080Z,2.30
2023-05-25T03:37:36.113Z,2.45
2023-05-25T03:40:25.362Z,2.22
2023-05-25T03:43:14.055Z,2.40
2023-05-25T03:46:02.836Z,2.92
2023-05-25T03:48:51.558Z,2.50
2023-05-25T03:51:40.219Z,2.10
2023-05-25T03:54:31.438Z,2.05
2023-05-25T03:57:20.114Z,2.15
2023-05-25T04:00:10.570Z,2.42
2023-05-25T04:02:59.568Z,2.47
2023-05-25T04:05:48.423Z,2.65
2023-05-25T04:08:37.088Z,2.20
2023-05-25T04:11:27.608Z,1.90
2023-05-25T04:14:16.268Z,1.55
2023-05-25T04:17:05.111Z,1.80
2023-05-25T04:19:54.197Z,2.15
2023-05-25T04:22:44.519Z,2.40
2023-05-25T04:25:33.270Z,2.10
2023-05-25T04:28:23.351Z,2.28
2023-05-25T04:31:12.910Z,2.25
2023-05-25T04:34:02.778Z,2.47
2023-05-25T04:36:51.445Z,2.17
2023-05-25T04:39:40.105Z,2.13
2023-05-25T04:42:28.940Z,2.70
2023-05-25T04:45:21.559Z,1.98
2023-05-25T04:48:10.312Z,2.33
2023-05-25T04:51:03.040Z,2.05
2023-05-25T04:53:52.242Z,1.80
2023-05-25T04:56:40.924Z,1.83
2023-05-25T04:59:29.577Z,2.20
2023-05-25T05:02:19.672Z,2.00
2023-05-25T05:05:08.807Z,3.92
2023-05-25T05:07:57.976Z,4.20
2023-05-25T05:10:46.612Z,2.72
2023-05-25T05:13:35.237Z,3.55
2023-05-25T05:16:24.127Z,2.97
2023-05-25T05:19:14.264Z,2.75
2023-05-25T05:22:03.073Z,3.83
2023-05-25T05:24:51.929Z,2.95
2023-05-25T05:27:40.647Z,3.97
2023-05-25T05:30:29.359Z,2.90
2023-05-25T05:33:18.244Z,2.65
2023-05-25T05:36:09.203Z,2.90
2023-05-25T05:38:57.853Z,2.60
2023-05-25T05:41:46.465Z,2.88
2023-05-25T05:44:35.169Z,3.08
2023-05-25T05:47:23.800Z,2.90
2023-05-25T05:50:13.231Z,2.80
2023-05-25T05:53:03.289Z,2.67
2023-05-25T05:55:56.297Z,3.05
2023-05-25T05:58:45.214Z,2.45
2023-05-25T06:01:34.136Z,2.58
2023-05-25T06:04:25.396Z,3.45
2023-05-25T06:07:14.189Z,2.60
2023-05-25T06:10:04.272Z,2.58
2023-05-25T06:12:53.992Z,2.85
2023-05-25T06:15:43.129Z,2.45
2023-05-25T06:18:31.910Z,2.53
2023-05-25T06:21:20.749Z,2.35
2023-05-25T06:24:10.273Z,2.40
2023-05-25T06:27:00.559Z,2.53
2023-05-25T06:29:49.392Z,2.97
2023-05-25T06:32:38.084Z,2.60
2023-05-25T06:35:26.866Z,2.67
2023-05-25T06:38:15.609Z,2.65
2023-05-25T06:41:05.497Z,2.47
2023-05-25T06:43:55.590Z,2.88
2023-05-25T06:46:44.307Z,2.40
2023-05-25T06:49:33.197Z,2.67
2023-05-25T06:52:21.945Z,2.58
2023-05-25T06:55:11.000Z,3.05
2023-05-25T06:57:59.659Z,3.45
2023-05-25T07:00:49.902Z,2.58
2023-05-25T07:03:38.679Z,3.15
2023-05-25T07:06:27.503Z,3.33
2023-05-25T07:09:17.393Z,3.13
2023-05-25T07:12:07.697Z,2.30
2023-05-25T07:14:56.829Z,2.70
2023-05-25T07:17:50.013Z,2.22
2023-05-25T07:20:42.233Z,2.20
2023-05-25T07:23:31.494Z,2.75
2023-05-25T07:26:21.306Z,2.13
2023-05-25T07:29:09.921Z,2.65
2023-05-25T07:31:58.572Z,2.35
2023-05-25T07:34:48.742Z,2.05
2023-05-25T07:37:37.555Z,2.58
2023-05-25T07:40:26.275Z,1.90
2023-05-25T07:43:15.088Z,2.30
2023-05-25T07:46:04.050Z,2.40
2023-05-25T07:48:54.622Z,2.25
2023-05-25T07:51:45.749Z,2.00
2023-05-25T07:54:34.910Z,2.13
2023-05-25T07:57:23.709Z,2.30
2023-05-25T08:00:13.729Z,1.63
2023-05-25T08:03:03.649Z,2.95
2023-05-25T08:05:52.768Z,2.20
2023-05-25T08:08:45.015Z,1.95
2023-05-25T08:11:33.976Z,1.60
2023-05-25T08:14:23.853Z,2.00
2023-05-25T08:17:12.719Z,2.40
2023-05-25T08:20:01.674Z,2.38
2023-05-25T08:22:53.521Z,2.13
2023-05-25T08:25:44.311Z,2.40
2023-05-25T08:28:33.969Z,2.15
2023-05-25T08:31:22.627Z,2.40
2023-05-25T08:34:11.483Z,2.10
2023-05-25T08:37:00.126Z,2.03
2023-05-25T08:39:48.837Z,2.03
2023-05-25T08:42:39.073Z,2.33
2023-05-25T08:48:39.460Z,2.10
2023-05-25T08:51:32.501Z,2.00
2023-05-25T08:54:24.121Z,1.88
2023-05-25T08:57:17.184Z,1.85
2023-05-25T09:00:11.618Z,2.08
2023-05-25T09:03:08.336Z,1.92
2023-05-25T09:05:58.474Z,2.00
2023-05-25T09:08:47.975Z,1.52
2023-05-25T09:11:39.974Z,1.77
2023-05-25T09:14:30.789Z,2.15
2023-05-25T09:17:21.360Z,2.13
2023-05-25T09:20:13.979Z,1.50
2023-05-25T09:23:03.312Z,1.90
2023-05-25T09:25:53.214Z,2.25
2023-05-25T09:28:47.803Z,2.00
2023-05-25T09:31:36.962Z,2.00
2023-05-25T09:34:33.911Z,2.22
2023-05-25T09:37:23.463Z,1.90
2023-05-25T09:40:13.781Z,1.90
2023-05-25T09:43:05.353Z,2.03
2023-05-25T09:45:54.591Z,2.38
2023-05-25T09:48:46.432Z,1.27
2023-05-25T09:51:37.905Z,1.88
2023-05-25T09:54:27.556Z,1.45
2023-05-25T09:57:17.207Z,1.95
2023-05-25T10:00:06.458Z,1.90
2023-05-25T10:02:55.455Z,2.42
2023-05-25T10:05:44.278Z,2.40
2023-05-25T10:08:37.661Z,2.13
2023-05-25T10:11:28.020Z,2.45
2023-05-25T10:14:21.953Z,2.25
2023-05-25T10:17:15.575Z,2.20
2023-05-25T10:20:09.289Z,1.60
2023-05-25T10:23:03.018Z,2.05
2023-05-25T10:25:56.978Z,1.95
2023-05-25T10:28:47.549Z,2.00
2023-05-25T10:31:37.830Z,1.73
2023-05-25T10:34:28.352Z,1.70
2023-05-25T10:37:18.693Z,2.63
2023-05-25T10:40:09.774Z,2.28
2023-05-25T10:43:00.880Z,2.10
2023-05-25T10:45:50.287Z,2.17
2023-05-25T10:48:39.878Z,1.58
2023-05-25T10:51:39.652Z,1.75
2023-05-25T10:54:32.106Z,2.25
2023-05-25T10:57:23.526Z,1.60
2023-05-25T11:00:15.813Z,2.03
2023-05-25T11:03:04.899Z,2.47
2023-05-25T11:05:54.098Z,2.47
2023-05-25T11:08:51.118Z,1.75
2023-05-25T11:12:04.551Z,2.13
2023-05-25T11:15:16.600Z,2.05
2023-05-25T11:18:05.630Z,2.33
2023-05-25T11:21:13.729Z,1.52
2023-05-25T11:24:04.286Z,1.90
2023-05-25T11:26:58.031Z,2.03
2023-05-25T11:29:51.657Z,1.50
2023-05-25T11:32:50.867Z,2.10
2023-05-25T11:35:39.647Z,2.22
2023-05-25T11:38:28.563Z,1.75
2023-05-25T11:41:18.893Z,1.40
2023-05-25T11:44:08.715Z,1.85
2023-05-25T11:46:58.639Z,2.03
2023-05-25T11:49:49.909Z,2.10
2023-05-25T11:52:38.699Z,1.85
2023-05-25T11:55:27.460Z,7.03
2023-05-25T11:58:16.088Z,15.10
2023-05-25T12:01:19.085Z,18.77
2023-05-25T12:04:11.536Z,15.82
2023-05-25T12:07:05.510Z,13.23
2023-05-25T12:09:54.542Z,11.57
2023-05-25T12:12:43.358Z,10.30
2023-05-25T12:15:32.158Z,10.05
2023-05-25T12:18:21.173Z,11.50
2023-05-25T12:21:10.649Z,10.13
2023-05-25T12:24:01.761Z,9.30
2023-05-25T12:26:51.572Z,7.68
2023-05-25T12:29:48.304Z,9.40
2023-05-25T12:32:37.631Z,7.43
2023-05-25T12:35:26.453Z,7.68
2023-05-25T12:38:16.247Z,6.35
2023-05-25T12:41:09.757Z,5.57
2023-05-25T12:43:58.834Z,5.50
2023-05-25T12:46:47.972Z,4.85
2023-05-25T12:49:36.898Z,3.83
2023-05-25T12:52:35.238Z,3.90
2023-05-25T12:55:29.126Z,3.03
2023-05-25T12:58:30.227Z,4.45
2023-05-25T13:01:19.002Z,3.47
2023-05-25T13:04:07.785Z,2.70
2023-05-25T13:06:56.816Z,2.60
2023-05-25T13:09:45.753Z,2.40
2023-05-25T13:12:36.421Z,3.33
2023-05-25T13:15:27.140Z,2.50
2023-05-25T13:18:15.955Z,2.63
2023-05-25T13:21:04.823Z,2.10
2023-05-25T13:23:53.762Z,2.17
2023-05-25T13:26:45.660Z,1.95
2023-05-25T13:29:35.105Z,2.05
2023-05-25T13:32:25.414Z,2.42
2023-05-25T13:35:19.367Z,2.13
2023-05-25T13:38:08.116Z,1.80
2023-05-25T13:40:57.649Z,2.20
2023-05-25T13:43:47.215Z,2.22
2023-05-25T13:46:37.767Z,1.63
2023-05-25T13:49:27.878Z,1.70
2023-05-25T13:52:16.586Z,1.80
2023-05-25T13:55:05.810Z,1.98
2023-05-25T13:57:54.499Z,1.90
2023-05-25T14:00:43.624Z,1.77
2023-05-25T14:03:33.116Z,2.15
2023-05-25T14:06:23.348Z,1.77
2023-05-25T14:09:12.894Z,1.80
2023-05-25T14:12:03.025Z,2.25
2023-05-25T14:14:51.778Z,1.88
2023-05-25T14:17:40.605Z,1.95
2023-05-25T14:20:29.347Z,2.90
2023-05-25T14:23:20.028Z,2.35
2023-05-25T14:26:08.670Z,2.60
2023-05-25T14:28:57.346Z,2.20
2023-05-25T14:31:46.525Z,2.45
2023-05-25T14:34:35.281Z,2.50
2023-05-25T14:37:24.021Z,2.25
2023-05-25T14:40:15.068Z,2.95
2023-05-25T14:43:03.904Z,3.08
2023-05-25T14:45:52.621Z,2.58
2023-05-25T14:48:41.413Z,2.35
2023-05-25T14:51:30.484Z,2.72
2023-05-25T14:54:19.176Z,2.20
2023-05-25T14:57:09.193Z,2.33
2023-05-25T14:59:58.019Z,2.42
2023-05-25T15:02:46.706Z,2.13
2023-05-25T15:05:35.596Z,2.00
2023-05-25T15:08:24.480Z,6.03
2023-05-25T15:11:13.174Z,3.38
2023-05-25T15:14:03.202Z,3.28
2023-05-25T15:16:51.848Z,2.90
2023-05-25T15:19:40.522Z,2.33
2023-05-25T15:22:29.134Z,2.20
2023-05-25T15:25:24.601Z,2.65
2023-05-25T15:28:20.153Z,2.83
2023-05-25T15:31:10.312Z,2.60
2023-05-25T15:34:00.659Z,2.40
2023-05-25T15:36:49.496Z,2.63
2023-05-25T15:39:38.390Z,2.35
2023-05-25T15:42:27.065Z,2.88
2023-05-25T15:45:16.903Z,2.90
2023-05-25T15:48:10.159Z,1.92
2023-05-25T15:50:58.881Z,2.38
2023-05-25T15:53:48.173Z,2.00
2023-05-25T15:56:37.067Z,2.15
2023-05-25T15:59:25.762Z,2.35
2023-05-25T16:02:14.513Z,2.25
2023-05-25T16:05:06.046Z,2.45
2023-05-25T16:07:54.739Z,2.92
2023-05-25T16:10:43.442Z,2.70
2023-05-25T16:13:32.150Z,2.35
2023-05-25T16:16:20.821Z,2.20
2023-05-25T16:19:10.518Z,2.05
2023-05-25T16:22:02.400Z,2.28
2023-05-25T16:24:51.338Z,2.67
2023-05-25T16:27:40.062Z,2.67
2023-05-25T16:30:28.727Z,3.15
2023-05-25T16:33:17.569Z,2.60
2023-05-25T16:36:07.326Z,2.67
2023-05-25T16:38:57.475Z,3.10
2023-05-25T16:41:47.321Z,4.07
2023-05-25T16:44:36.905Z,4.60
2023-05-25T16:47:25.566Z,5.25
2023-05-25T16:50:14.413Z,7.88
2023-05-25T16:53:03.112Z,8.35
2023-05-25T16:55:53.261Z,7.78
2023-05-25T16:58:41.962Z,6.60
2023-05-25T17:01:30.686Z,4.93
2023-05-25T17:04:19.449Z,4.47
2023-05-25T17:07:08.266Z,4.97
2023-05-25T17:09:56.908Z,2.80
2023-05-25T17:12:46.905Z,3.25
2023-05-25T17:15:35.564Z,3.42
2023-05-25T17:18:24.985Z,3.00
2023-05-25T17:21:14.397Z,3.10
2023-05-25T17:24:03.516Z,2.85
2023-05-25T17:26:52.318Z,3.13
2023-05-25T17:29:45.533Z,2.90
2023-05-25T17:32:34.279Z,2.53
2023-05-25T17:35:23.245Z,3.28
2023-05-25T17:38:11.967Z,3.00
2023-05-25T17:41:00.720Z,2.83
2023-05-25T17:43:49.481Z,2.65
2023-05-25T17:46:39.804Z,2.72
2023-05-25T17:49:28.548Z,3.50
2023-05-25T17:52:17.263Z,2.83
2023-05-25T17:55:07.266Z,3.13
2023-05-25T17:57:55.894Z,3.35
2023-05-25T18:00:44.861Z,2.80
2023-05-25T18:03:35.239Z,2.72
2023-05-25T18:06:23.891Z,3.03
2023-05-25T18:09:18.023Z,2.92
2023-05-25T18:12:09.729Z,3.17
2023-05-25T18:14:58.402Z,2.92
2023-05-25T18:17:50.221Z,2.83
2023-05-25T18:20:40.538Z,3.50
2023-05-25T18:23:29.327Z,3.05
2023-05-25T18:26:17.899Z,3.13
2023-05-25T18:29:06.542Z,2.80
2023-05-25T18:31:55.153Z,3.78
2023-05-25T18:34:45.141Z,2.97
2023-05-25T18:37:35.811Z,2.90
2023-05-25T18:40:24.467Z,3.35
2023-05-25T18:43:13.235Z,2.58
2023-05-25T18:46:01.946Z,3.00
2023-05-25T18:48:50.675Z,4.53
2023-05-25T18:51:40.140Z,2.92
2023-05-25T18:54:30.297Z,3.30
2023-05-25T18:57:18.929Z,2.90
2023-05-25T19:00:09.033Z,3.35
2023-05-25T19:02:58.372Z,3.05
2023-05-25T19:05:47.238Z,3.00
2023-05-25T19:08:35.938Z,3.13
2023-05-25T19:11:26.161Z,3.40
2023-05-25T19:14:14.855Z,3.92
2023-05-25T19:17:03.537Z,2.85
2023-05-25T19:19:52.315Z,2.90
2023-05-25T19:22:41.834Z,3.00
2023-05-25T19:25:30.582Z,3.08
2023-05-25T19:28:20.673Z,3.47
2023-05-25T19:31:09.362Z,2.65
2023-05-25T19:33:58.054Z,2.45
2023-05-25T19:36:48.251Z,3.28
2023-05-25T19:39:44.875Z,3.22
2023-05-25T19:42:33.535Z,2.95
2023-05-25T19:45:23.765Z,2.35
2023-05-25T19:48:12.414Z,2.05
2023-05-25T19:51:01.359Z,2.00
2023-05-25T19:53:51.976Z,2.15
2023-05-25T19:56:42.339Z,2.42
2023-05-25T19:59:32.748Z,1.98
2023-05-25T20:02:23.010Z,2.22
2023-05-25T20:05:12.660Z,2.25
2023-05-25T20:08:01.282Z,2.10
2023-05-25T20:10:52.311Z,2.50
2023-05-25T20:13:41.400Z,2.42
2023-05-25T20:16:30.153Z,2.40
2023-05-25T20:19:22.389Z,2.25
2023-05-25T20:22:11.206Z,2.53
2023-05-25T20:25:00.924Z,2.67
2023-05-25T20:27:49.703Z,2.63
2023-05-25T20:30:38.436Z,2.00
2023-05-25T20:33:27.214Z,1.90
2023-05-25T20:36:17.301Z,2.40
2023-05-25T20:39:05.939Z,2.53
2023-05-25T20:41:54.558Z,2.88
2023-05-25T20:44:43.309Z,2.83
2023-05-25T20:47:32.077Z,2.92
2023-05-25T20:50:20.820Z,2.70
2023-05-25T20:53:11.945Z,3.28
2023-05-25T20:56:00.666Z,2.58
2023-05-25T20:58:49.351Z,2.60
2023-05-25T21:01:38.143Z,2.35
2023-05-25T21:04:26.803Z,2.45
2023-05-25T21:07:15.733Z,2.38
2023-05-25T21:10:06.614Z,2.25
2023-05-25T21:12:55.268Z,2.30
2023-05-25T21:15:44.154Z,2.08
2023-05-25T21:18:33.084Z,2.20
2023-05-25T21:21:22.012Z,1.88
2023-05-25T21:24:10.655Z,2.28
2023-05-25T21:27:01.441Z,2.33
2023-05-25T21:29:50.108Z,2.38
2023-05-25T21:32:38.908Z,2.15
2023-05-25T21:35:27.580Z,2.40
2023-05-25T21:38:16.252Z,2.75
2023-05-25T21:41:04.910Z,2.22
2023-05-25T21:43:54.956Z,2.67
2023-05-25T21:46:46.803Z,2.20
2023-05-25T21:49:35.593Z,2.83
2023-05-25T21:52:24.305Z,2.92
2023-05-25T21:55:13.053Z,2.58
2023-05-25T21:58:01.813Z,2.55
2023-05-25T22:00:54.046Z,2.40
2023-05-25T22:03:42.762Z,2.10
2023-05-25T22:06:34.410Z,2.78
2023-05-25T22:09:23.069Z,2.72
2023-05-25T22:12:16.125Z,2.35
2023-05-25T22:15:05.767Z,2.35
2023-05-25T22:17:57.053Z,2.58
2023-05-25T22:20:45.972Z,2.60
2023-05-25T22:23:34.723Z,2.75
2023-05-25T22:26:23.694Z,2.05
2023-05-25T22:29:12.510Z,2.53
2023-05-25T22:32:01.293Z,2.50
2023-05-25T22:34:51.385Z,2.90
2023-05-25T22:37:40.072Z,2.20
2023-05-25T22:40:28.747Z,2.60
2023-05-25T22:43:17.709Z,2.63
2023-05-25T22:46:06.416Z,2.63
2023-05-25T22:48:55.085Z,2.47
2023-05-25T22:51:45.456Z,2.42
2023-05-25T22:54:34.318Z,2.17
2023-05-25T22:57:22.929Z,2.05
2023-05-25T23:00:12.527Z,2.78
2023-05-25T23:03:04.008Z,2.75
2023-05-25T23:05:53.245Z,2.40
2023-05-25T23:08:44.019Z,1.85
2023-05-25T23:11:32.622Z,2.83
2023-05-25T23:14:21.802Z,2.28
2023-05-25T23:17:10.469Z,2.05
2023-05-25T23:19:59.166Z,2.25
2023-05-25T23:22:48.777Z,1.90
2023-05-25T23:25:41.922Z,2.35
2023-05-25T23:28:30.695Z,1.90
2023-05-25T23:31:19.371Z,2.45
2023-05-25T23:34:08.110Z,2.33
2023-05-25T23:36:58.201Z,3.00
2023-05-25T23:39:47.154Z,2.67
2023-05-25T23:42:41.615Z,2.33
2023-05-25T23:45:30.372Z,2.63
2023-05-25T23:48:19.145Z,2.17
2023-05-25T23:51:08.420Z,2.72
2023-05-25T23:53:57.091Z,2.53
2023-05-25T23:56:45.802Z,2.70
2023-05-25T23:59:35.813Z,2.60
